History for KNYNEWYO912

The Dog, New York City, NY — Current Conditions
Daily Summary for November 12, 2018
  Current: High: Low: Average:
Temperature: 42.9°F 46.1°F 39.1°F 42.6°F
Dew Point: 16.0°F 32.0°F 19.0°F 25.2°F
Humidity: 34% 59% 36% 49%
Wind Speed: 7.0mph 9.0mph - 3.7mph
Wind Gust: 15.0mph 15.0mph - -
Wind: West - - SE
Pressure: 30.42in 30.54in 30.42in -
Precipitation: 0.00in      
Statistics for the rest of the month
    High: Low: Average:
Temperature:   69.0°F 31.4°F 50.3°F
Dew Point:   58.0°F 6.0°F 35.1°F
Humidity:   84.0% 28.0% 58.7%
Wind Speed:   35.0mph from the WSW - 8.5mph
Wind Gust:   45.0mph from the SW - -
Wind:   - - SSW
Pressure:   30.64in 29.64in -
Precipitation:   2.21in    
KNYNEWYO912 Weather Graph
Tabular Data for November 12, 2018
Time Temp. Windchill Dew Point Pressure Wind Gust Humidity Rainfall
00:45 40.7°F - 19.0°F 30.49in 3.0mph 42% 0.00in
01:00 40.8°F - 19.0°F 30.49in 5.0mph 41% 0.00in
02:00 40.4°F - 19.0°F 30.50in 4.0mph 43% 0.00in
02:15 39.8°F - 23.0°F 30.50in 4.0mph 51% 0.00in
02:31 39.6°F - 23.0°F 30.50in 4.0mph 52% 0.00in
02:45 39.1°F - 24.0°F 30.50in 4.0mph 55% 0.00in
04:15 39.7°F - 21.0°F 30.51in 3.0mph 48% 0.00in
05:15 40.0°F - 21.0°F 30.51in 7.0mph 47% 0.00in
05:30 40.0°F - 22.0°F 30.51in 5.0mph 49% 0.00in
07:00 40.1°F - 23.0°F 30.51in 6.0mph 50% 0.00in
07:45 40.2°F 36.7°F 23.0°F 30.53in 6.0mph 51% 0.00in
08:45 40.5°F - 23.0°F 30.54in 5.0mph 49% 0.00in
09:00 40.9°F - 23.0°F 30.54in 8.0mph 49% 0.00in
10:30 42.4°F - 21.0°F 30.54in 9.0mph 42% 0.00in
12:15 44.1°F 41.3°F 19.0°F 30.50in 10.0mph 37% 0.00in
12:30 45.1°F 42.5°F 19.0°F 30.49in 8.0mph 36% 0.00in
13:00 44.4°F 40.5°F 19.0°F 30.48in 12.0mph 37% 0.00in
13:30 44.6°F - 19.0°F 30.47in 10.0mph 36% 0.00in
14:15 44.6°F - 20.0°F 30.47in 13.0mph 37% 0.00in
14:30 44.7°F 41.4°F 20.0°F 30.46in 13.0mph 37% 0.00in
14:45 45.8°F - 21.0°F 30.46in 9.0mph 37% 0.00in
15:00 45.8°F - 21.0°F 30.46in 10.0mph 37% 0.00in
15:15 45.5°F - 21.0°F 30.46in 9.0mph 38% 0.00in
15:30 44.7°F - 22.0°F 30.46in 15.0mph 41% 0.00in
15:45 46.0°F - 23.0°F 30.46in 7.0mph 41% 0.00in
16:00 45.1°F 41.3°F 24.0°F 30.47in 14.0mph 43% 0.00in
16:15 45.0°F - 24.0°F 30.48in 11.0mph 44% 0.00in
16:30 44.6°F 41.2°F 24.0°F 30.47in 8.0mph 45% 0.00in
16:45 44.6°F 42.6°F 25.0°F 30.47in 11.0mph 47% 0.00in
17:00 44.6°F - 26.0°F 30.47in 12.0mph 49% 0.00in
17:15 44.5°F - 27.0°F 30.46in 11.0mph 50% 0.00in
17:30 44.6°F 41.2°F 28.0°F 30.47in 12.0mph 52% 0.00in
17:45 44.4°F 42.4°F 28.0°F 30.46in 15.0mph 53% 0.00in
18:00 44.0°F 41.2°F 28.0°F 30.47in 13.0mph 54% 0.00in
18:15 44.3°F 41.5°F 29.0°F 30.47in 13.0mph 55% 0.00in
18:30 44.4°F 40.0°F 29.0°F 30.47in 10.0mph 56% 0.00in
18:45 44.1°F 40.1°F 30.0°F 30.46in 11.0mph 57% 0.00in
19:00 43.9°F 40.4°F 30.0°F 30.45in 13.0mph 58% 0.00in
19:15 44.3°F 40.3°F 30.0°F 30.45in 13.0mph 58% 0.00in
19:30 44.0°F 40.0°F 30.0°F 30.44in 12.0mph 58% 0.00in
19:45 44.4°F 40.5°F 30.0°F 30.45in 12.0mph 58% 0.00in
20:00 44.3°F 39.4°F 31.0°F 30.45in 13.0mph 59% 0.00in
20:15 44.8°F 42.9°F 31.0°F 30.45in 9.0mph 58% 0.00in
20:30 45.2°F - 31.0°F 30.45in 7.0mph 58% 0.00in
20:45 45.2°F 40.5°F 31.0°F 30.45in 10.0mph 58% 0.00in
21:00 45.2°F - 31.0°F 30.44in 7.0mph 58% 0.00in
21:15 45.4°F - 31.0°F 30.43in 9.0mph 58% 0.00in
21:30 45.5°F - 31.0°F 30.43in 8.0mph 58% 0.00in
21:45 45.8°F 41.7°F 32.0°F 30.43in 8.0mph 58% 0.00in
22:00 46.0°F 44.3°F 32.0°F 30.43in 8.0mph 58% 0.00in
22:15 46.1°F - 32.0°F 30.42in 9.0mph 59% 0.00in
Comma Delimited File
Powered by Weather Underground, Inc.